Flood From: 22-02-2018 06:00 Until: 23-02-2018 06:00 warning for: Flood Level: Yellow info button

Although rather usual in this region, locally or potentially dangerous phenomena are expected. (such as local winds, summer thunderstorms, rising streams or high waves) Be aware and pay attention to the latest weather updates, especially if you carry out activities exposed to weather or close to a stream or shoreline. 


Meteo18 Weather Cam more information Meteo18 Weather Cam


Thunder radar more information blitzortung!


Rain radar more information rain snow radar


Visit our other weather sites:

Template documentation
and downloads

And another site



Weather Underground History page Text

Daily Summary for December 10, 2017 Units:  English    Metric   Both
« Previous Day
Next Day »
Daily Weekly Monthly Yearly Custom
  High: Low: Average:
Temperature: TemperatureC °F 0.4 °F 6 °F
Dew Point: DewpointC °F -0.9 °F 4.4 °F
Humidity: Humidity % 75 % 90 %
Wind Speed: WindSpeedKMH mph 0.0 mph 13.6 mph
Wind Gust: WindSpeedGustKMH mph - -
Wind:- - SSW
Pressure: PressurehPa in 985.7 in -
Precipitation: 20.6 in    
Historical Graphs
 
 
Tabular Data for December 10, 2017
Time Temperature Dew Point Pressure Wind Wind Speed Wind Gust Humidity Rainfall Rate (Hourly)
TemperatureC °F DewpointC °F PressurehPa in Calm     Humidity % HourlyPrecipMM in
00:02 0.6 °F -0.3 °F 1013.1 in South 1.6 mph 3.2 mph 94 % 0.0 in
00:07 0.7 °F -0.3 °F 1013.1 in Calm   3.2 mph 93 % 0.0 in
00:12 0.7 °F -0.3 °F 1013.1 in Calm   3.2 mph 93 % 0.0 in
00:17 0.8 °F -0.2 °F 1012.8 in Calm   8.0 mph 93 % 0.0 in
00:22 0.8 °F -0.2 °F 1012.8 in SSW 1.6 mph 8.0 mph 93 % 0.0 in
00:27 0.9 °F -0.3 °F 1012.8 in SSW 1.6 mph 8.0 mph 92 % 0.0 in
00:42 0.9 °F -0.3 °F 1012.4 in SW 3.2 mph 4.8 mph 92 % 0.0 in
00:47 0.9 °F -0.3 °F 1012.1 in SSW 1.6 mph 4.8 mph 92 % 0.0 in
00:52 0.8 °F -0.4 °F 1012.1 in SSE 1.6 mph 4.8 mph 92 % 0.0 in
01:07 0.9 °F -0.4 °F 1011.4 in SW 1.6 mph 6.4 mph 91 % 0.0 in
01:12 0.9 °F -0.4 °F 1011.4 in Calm   4.8 mph 91 % 0.0 in
01:17 0.8 °F -0.5 °F 1011.1 in Calm   3.2 mph 91 % 0.0 in
01:22 0.9 °F -0.4 °F 1011.1 in SSE 1.6 mph 4.8 mph 91 % 0.0 in
01:32 0.9 °F -0.6 °F 1010.4 in Calm   4.8 mph 90 % 0.0 in
01:37 0.9 °F -0.6 °F 1010.7 in Calm   4.8 mph 90 % 0.0 in
01:42 0.9 °F -0.6 °F 1010.0 in SE 1.6 mph 4.8 mph 90 % 0.0 in
01:47 0.9 °F -0.6 °F 1009.7 in Calm   6.4 mph 90 % 0.0 in
01:52 0.9 °F -0.6 °F 1010.0 in Calm   8.0 mph 90 % 0.0 in
01:57 0.9 °F -0.6 °F 1009.7 in South 3.2 mph 8.0 mph 90 % 0.0 in
02:02 0.9 °F -0.6 °F 1009.4 in Calm   9.7 mph 90 % 0.0 in
02:12 1.0 °F -0.6 °F 1009.4 in SSE 3.2 mph 9.7 mph 89 % 0.0 in
02:22 1.1 °F -0.5 °F 1008.7 in South 3.2 mph 14.5 mph 89 % 0.0 in
02:32 1.2 °F -0.6 °F 1008.4 in SSE 3.2 mph 20.9 mph 88 % 0.0 in
02:37 1.2 °F -0.6 °F 1008.0 in South 4.8 mph 20.9 mph 88 % 0.0 in
02:42 1.2 °F -0.6 °F 1008.0 in SE 9.7 mph 20.9 mph 88 % 0.0 in
02:47 1.2 °F -0.6 °F 1007.7 in SSE 4.8 mph 12.9 mph 88 % 0.0 in
02:52 1.2 °F -0.6 °F 1007.7 in SSE 6.4 mph 11.3 mph 88 % 0.0 in
03:02 1.3 °F -0.6 °F 1007.3 in SE 1.6 mph 14.5 mph 87 % 0.0 in
03:12 1.3 °F -0.6 °F 1007.0 in SE 4.8 mph 12.9 mph 87 % 0.0 in
03:22 1.4 °F -0.7 °F 1006.7 in SSE 3.2 mph 17.7 mph 86 % 0.0 in
03:27 1.4 °F -0.7 °F 1006.7 in SSE 3.2 mph 17.7 mph 86 % 0.0 in
03:37 1.3 °F -0.6 °F 1006.3 in SE 4.8 mph 17.7 mph 87 % 0.0 in
03:52 0.9 °F -0.7 °F 1005.6 in SE 3.2 mph 17.7 mph 89 % 0.0 in
03:57 0.8 °F -0.7 °F 1005.6 in SSW 4.8 mph 17.7 mph 90 % 0.0 in
04:02 0.7 °F -0.8 °F 1005.3 in SE 3.2 mph 17.7 mph 90 % 0.0 in
04:07 0.6 °F -0.9 °F 1004.6 in ESE 14.5 mph 16.1 mph 90 % 0.0 in
04:12 0.6 °F -0.7 °F 1004.3 in SE 4.8 mph 16.1 mph 91 % 0.0 in
04:22 0.4 °F -0.7 °F 1003.9 in SE 4.8 mph 17.7 mph 92 % 0.0 in
04:27 0.4 °F -0.7 °F 1003.6 in ESE 4.8 mph 17.7 mph 92 % 0.0 in
04:32 0.4 °F -0.7 °F 1003.6 in SSE 3.2 mph 14.5 mph 92 % 0.0 in
04:42 0.4 °F -0.6 °F 1002.9 in SSE 4.8 mph 12.9 mph 93 % 0.0 in
04:47 0.4 °F -0.6 °F 1002.9 in Calm   12.9 mph 93 % 0.0 in
04:52 0.4 °F -0.6 °F 1002.6 in SSE 1.6 mph 12.9 mph 93 % 0.0 in
04:57 0.4 °F -0.5 °F 1002.6 in South 6.4 mph 11.3 mph 94 % 0.0 in
05:02 0.4 °F -0.5 °F 1002.3 in SE 11.3 mph 11.3 mph 94 % 0.0 in
05:12 0.4 °F -0.3 °F 1001.6 in SE 6.4 mph 16.1 mph 95 % 0.5 in
05:17 0.4 °F -0.3 °F 1001.2 in SSE 4.8 mph 17.7 mph 95 % 0.8 in
05:27 0.4 °F -0.3 °F 1001.2 in SSE 4.8 mph 17.7 mph 95 % 1.0 in
05:32 0.5 °F -0.2 °F 1000.9 in SSE 3.2 mph 17.7 mph 95 % 1.0 in
05:37 0.5 °F -0.2 °F 1000.6 in SE 4.8 mph 17.7 mph 95 % 1.3 in
05:42 0.6 °F -0.1 °F 1000.2 in SE 9.7 mph 17.7 mph 95 % 1.5 in
05:52 0.6 °F 0.0 °F 999.9 in SE 16.1 mph 17.7 mph 96 % 1.5 in
06:02 0.7 °F 0.1 °F 999.5 in SSE 4.8 mph 19.3 mph 96 % 1.5 in
06:12 0.8 °F 0.2 °F 998.9 in SW 11.3 mph 17.7 mph 96 % 1.8 in
06:17 0.9 °F 0.3 °F 998.9 in SSE 6.4 mph 19.3 mph 96 % 1.8 in
06:32 1.1 °F 0.5 °F 998.5 in South 6.4 mph 20.9 mph 96 % 1.8 in
06:42 1.2 °F 0.6 °F 997.9 in SSE 4.8 mph 20.9 mph 96 % 2.0 in
06:47 1.2 °F 0.6 °F 997.9 in South 8.0 mph 19.3 mph 96 % 2.3 in
06:52 1.3 °F 0.7 °F 997.5 in South 9.7 mph 19.3 mph 96 % 2.3 in
07:02 1.3 °F 0.7 °F 997.2 in SSW 3.2 mph 17.7 mph 96 % 2.5 in
07:12 1.4 °F 0.8 °F 996.8 in SSE 4.8 mph 16.1 mph 96 % 2.8 in
07:17 1.4 °F 0.8 °F 996.8 in SSE 3.2 mph 17.7 mph 96 % 3.0 in
07:22 1.5 °F 1.1 °F 996.5 in SSE 6.4 mph 17.7 mph 97 % 3.0 in
07:32 1.6 °F 1.2 °F 996.2 in South 4.8 mph 17.7 mph 97 % 3.3 in
07:37 1.6 °F 1.2 °F 995.8 in SSE 9.7 mph 19.3 mph 97 % 3.3 in
07:42 1.7 °F 1.3 °F 995.5 in SSE 8.0 mph 19.3 mph 97 % 3.3 in
07:47 1.8 °F 1.4 °F 995.5 in South 8.0 mph 20.9 mph 97 % 3.3 in
07:52 1.8 °F 1.4 °F 995.1 in SSW 6.4 mph 20.9 mph 97 % 3.6 in
07:57 1.9 °F 1.5 °F 994.8 in SSE 4.8 mph 17.7 mph 97 % 3.6 in
08:02 2.0 °F 1.6 °F 994.8 in SSW 4.8 mph 17.7 mph 97 % 3.6 in
08:12 2.1 °F 1.7 °F 994.5 in SSE 6.4 mph 16.1 mph 97 % 3.6 in
08:17 2.2 °F 1.8 °F 994.1 in SSW 3.2 mph 19.3 mph 97 % 3.6 in
08:22 2.3 °F 1.9 °F 994.1 in SSE 3.2 mph 19.3 mph 97 % 4.1 in
08:27 2.3 °F 1.9 °F 994.1 in South 3.2 mph 19.3 mph 97 % 4.1 in
08:32 2.4 °F 2.0 °F 993.8 in SSE 4.8 mph 19.3 mph 97 % 4.1 in
08:42 2.7 °F 2.3 °F 993.5 in SSE 3.2 mph 12.9 mph 97 % 4.1 in
08:47 2.8 °F 2.4 °F 993.1 in SSE 1.6 mph 12.9 mph 97 % 3.6 in
08:52 2.9 °F 2.5 °F 993.1 in SSE 1.6 mph 12.9 mph 97 % 3.6 in
08:57 3.3 °F 2.9 °F 992.8 in South 3.2 mph 12.9 mph 97 % 3.3 in
09:02 3.7 °F 3.4 °F 992.8 in South 3.2 mph 12.9 mph 98 % 3.3 in
09:12 4.9 °F 4.6 °F 992.4 in SSW 8.0 mph 9.7 mph 98 % 3.0 in
09:17 5.8 °F 5.5 °F 992.1 in SW 14.5 mph 19.3 mph 98 % 2.5 in
09:52 8.1 °F 7.8 °F 991.1 in SW 22.5 mph 37.0 mph 98 % 2.3 in
09:57 8.3 °F 8.0 °F 990.7 in SW 29.0 mph 35.4 mph 98 % 2.3 in
10:02 8.4 °F 8.1 °F 991.1 in West 11.3 mph 35.4 mph 98 % 2.3 in
10:12 8.7 °F 8.4 °F 990.4 in SW 20.9 mph 30.6 mph 98 % 3.0 in
10:17 8.8 °F 8.3 °F 990.4 in SW 27.4 mph 43.4 mph 97 % 3.0 in
10:27 9.1 °F 8.6 °F 990.4 in WSW 30.6 mph 43.4 mph 97 % 3.3 in
10:32 9.2 °F 8.6 °F 990.4 in WSW 20.9 mph 43.4 mph 96 % 3.3 in
10:37 9.2 °F 8.6 °F 990.7 in WSW 27.4 mph 45.1 mph 96 % 4.1 in
10:42 9.3 °F 8.7 °F 991.1 in SW 27.4 mph 45.1 mph 96 % 4.3 in
10:52 9.7 °F 9.1 °F 990.7 in West 16.1 mph 38.6 mph 96 % 4.8 in
11:12 10.3 °F 9.5 °F 990.1 in SW 22.5 mph 45.1 mph 95 % 4.3 in
11:17 10.4 °F 9.6 °F 990.4 in WSW 25.7 mph 40.2 mph 95 % 4.1 in
11:22 10.5 °F 9.7 °F 990.4 in SW 29.0 mph 40.2 mph 95 % 3.6 in
11:32 10.8 °F 10.0 °F 990.4 in WSW 30.6 mph 43.4 mph 95 % 3.3 in
11:37 10.9 °F 10.0 °F 990.4 in WSW 19.3 mph 43.4 mph 94 % 2.3 in
11:42 11.1 °F 10.2 °F 990.1 in WSW 37.0 mph 43.4 mph 94 % 2.0 in
11:47 11.2 °F 10.1 °F 990.1 in WSW 27.4 mph 46.7 mph 93 % 1.3 in
11:57 11.4 °F 10.1 °F 990.4 in WSW 29.0 mph 46.7 mph 92 % 0.5 in
12:02 11.4 °F 10.0 °F 990.4 in WSW 20.9 mph 46.7 mph 91 % 0.5 in
12:12 11.5 °F 9.9 °F 990.1 in SW 29.0 mph 59.5 mph 90 % 0.3 in
12:17 11.5 °F 9.7 °F 990.4 in WNW 29.0 mph 46.7 mph 89 % 0.3 in
12:22 11.6 °F 9.3 °F 990.4 in WSW 30.6 mph 48.3 mph 86 % 0.3 in
12:32 11.5 °F 8.7 °F 990.7 in West 32.2 mph 48.3 mph 83 % 0.3 in
12:37 11.4 °F 8.8 °F 991.1 in WSW 12.9 mph 53.1 mph 84 % 0.0 in
12:42 11.4 °F 8.3 °F 991.1 in WNW 20.9 mph 53.1 mph 81 % 0.0 in
12:52 11.5 °F 7.2 °F 991.4 in West 45.1 mph 45.1 mph 75 % 0.0 in
12:57 11.4 °F 7.1 °F 991.4 in West 17.7 mph 59.5 mph 75 % 0.0 in
13:07 11.3 °F 7.8 °F 991.4 in WSW 19.3 mph 51.5 mph 79 % 0.0 in
13:12 11.2 °F 8.1 °F 991.1 in WSW 27.4 mph 51.5 mph 81 % 0.0 in
13:17 11.1 °F 8.0 °F 991.1 in WSW 24.1 mph 38.6 mph 81 % 0.0 in
13:22 11.1 °F 7.8 °F 991.1 in WSW 14.5 mph 38.6 mph 80 % 0.0 in
13:27 11.1 °F 7.6 °F 991.4 in WNW 22.5 mph 41.8 mph 79 % 0.0 in
13:32 11.0 °F 7.7 °F 991.4 in SW 9.7 mph 41.8 mph 80 % 0.0 in
13:47 10.8 °F 7.3 °F 991.4 in West 19.3 mph 51.5 mph 79 % 0.0 in
13:52 10.8 °F 7.1 °F 991.4 in West 19.3 mph 45.1 mph 78 % 0.0 in
14:02 10.8 °F 7.1 °F 991.4 in WSW 33.8 mph 38.6 mph 78 % 0.0 in
14:07 10.7 °F 7.2 °F 991.4 in WSW 14.5 mph 38.6 mph 79 % 0.0 in
14:17 10.7 °F 7.0 °F 991.4 in West 14.5 mph 41.8 mph 78 % 0.0 in
14:22 10.7 °F 7.2 °F 991.1 in West 14.5 mph 30.6 mph 79 % 0.0 in
14:37 10.6 °F 7.3 °F 990.7 in West 17.7 mph 37.0 mph 80 % 0.0 in
14:42 10.7 °F 7.4 °F 990.7 in SW 14.5 mph 37.0 mph 80 % 0.0 in
14:47 10.7 °F 7.6 °F 990.7 in SW 25.7 mph 35.4 mph 81 % 0.0 in
14:57 10.6 °F 7.5 °F 990.7 in West 19.3 mph 35.4 mph 81 % 0.0 in
15:02 10.5 °F 7.6 °F 990.7 in SSW 11.3 mph 32.2 mph 82 % 0.0 in
15:12 10.5 °F 7.4 °F 990.4 in SW 20.9 mph 32.2 mph 81 % 0.0 in
15:17 10.5 °F 7.2 °F 990.7 in West 12.9 mph 38.6 mph 80 % 0.0 in
15:22 10.4 °F 7.1 °F 990.7 in SW 16.1 mph 38.6 mph 80 % 0.0 in
15:27 10.4 °F 7.3 °F 990.7 in WSW 12.9 mph 40.2 mph 81 % 0.0 in
15:32 10.4 °F 7.5 °F 990.7 in WSW 19.3 mph 40.2 mph 82 % 0.0 in
15:42 10.3 °F 7.5 °F 990.7 in SW 19.3 mph 35.4 mph 83 % 0.0 in
15:52 10.3 °F 7.7 °F 990.4 in South 17.7 mph 27.4 mph 84 % 0.0 in
15:57 10.3 °F 7.7 °F 990.4 in SW 29.0 mph 29.0 mph 84 % 0.0 in
16:02 10.3 °F 7.7 °F 990.4 in West 19.3 mph 30.6 mph 84 % 0.0 in
16:12 10.3 °F 7.7 °F 990.4 in SW 20.9 mph 38.6 mph 84 % 0.0 in
16:17 10.3 °F 7.5 °F 990.4 in SW 14.5 mph 38.6 mph 83 % 0.0 in
16:22 10.2 °F 7.4 °F 990.4 in WSW 24.1 mph 35.4 mph 83 % 0.0 in
16:32 10.2 °F 7.4 °F 990.4 in SSW 19.3 mph 35.4 mph 83 % 0.0 in
16:42 10.1 °F 7.3 °F 990.1 in SSW 14.5 mph 32.2 mph 83 % 0.0 in
16:47 10.1 °F 7.2 °F 989.7 in SW 19.3 mph 40.2 mph 82 % 0.0 in
16:57 10.1 °F 6.8 °F 989.7 in WSW 27.4 mph 40.2 mph 80 % 0.0 in
17:02 10.1 °F 6.8 °F 989.7 in WSW 30.6 mph 37.0 mph 80 % 0.0 in
17:12 9.9 °F 6.8 °F 989.4 in SW 19.3 mph 37.0 mph 81 % 0.0 in
17:22 9.9 °F 6.8 °F 989.4 in SW 14.5 mph 33.8 mph 81 % 0.0 in
17:27 9.9 °F 7.0 °F 989.4 in SW 19.3 mph 33.8 mph 82 % 0.0 in
17:42 9.8 °F 6.9 °F 989.4 in SW 19.3 mph 40.2 mph 82 % 0.0 in
17:52 9.9 °F 7.0 °F 989.1 in SW 24.1 mph 33.8 mph 82 % 0.0 in
18:02 9.8 °F 7.4 °F 989.1 in SW 30.6 mph 41.8 mph 85 % 0.0 in
18:07 9.7 °F 7.3 °F 989.1 in SW 27.4 mph 41.8 mph 85 % 0.0 in
18:27 9.4 °F 6.8 °F 989.1 in SW 24.1 mph 41.8 mph 84 % 0.0 in
18:32 9.4 °F 6.7 °F 989.4 in SW 30.6 mph 41.8 mph 83 % 0.0 in
18:37 9.4 °F 6.5 °F 989.4 in SSW 37.0 mph 45.1 mph 82 % 0.0 in
18:42 9.4 °F 6.5 °F 989.4 in SW 30.6 mph 45.1 mph 82 % 0.0 in
18:57 9.2 °F 6.5 °F 989.4 in SW 19.3 mph 57.9 mph 83 % 0.0 in
19:02 9.0 °F 6.6 °F 989.4 in SW 29.0 mph 57.9 mph 85 % 0.0 in
19:12 8.6 °F 6.6 °F 989.1 in SW 35.4 mph 51.5 mph 87 % 0.0 in
19:17 8.6 °F 6.7 °F 989.1 in WSW 27.4 mph 51.5 mph 88 % 0.0 in
19:22 8.5 °F 6.6 °F 989.1 in West 25.7 mph 43.4 mph 88 % 0.0 in
19:27 8.4 °F 6.7 °F 989.1 in SW 25.7 mph 45.1 mph 89 % 0.0 in
19:32 8.4 °F 6.7 °F 989.1 in SW 22.5 mph 45.1 mph 89 % 0.0 in
19:37 8.4 °F 6.9 °F 989.1 in SW 17.7 mph 45.1 mph 90 % 0.0 in
19:52 8.3 °F 6.9 °F 989.1 in WSW 20.9 mph 41.8 mph 91 % 0.0 in
19:57 8.3 °F 6.9 °F 989.1 in SW 25.7 mph 40.2 mph 91 % 0.0 in
20:07 8.3 °F 6.9 °F 989.1 in SW 19.3 mph 40.2 mph 91 % 0.0 in
20:17 8.3 °F 7.1 °F 988.7 in SW 19.3 mph 33.8 mph 92 % 0.0 in
20:22 8.3 °F 7.1 °F 988.7 in SW 27.4 mph 33.8 mph 92 % 0.0 in
20:27 8.3 °F 6.9 °F 988.7 in SW 16.1 mph 37.0 mph 91 % 0.0 in
20:37 8.3 °F 7.1 °F 988.7 in WSW 20.9 mph 37.0 mph 92 % 0.0 in
20:47 8.3 °F 7.1 °F 988.7 in SW 9.7 mph 32.2 mph 92 % 0.0 in
20:52 8.3 °F 7.1 °F 988.7 in SSW 22.5 mph 32.2 mph 92 % 0.0 in
21:02 8.2 °F 7.1 °F 988.7 in SW 17.7 mph 30.6 mph 93 % 0.3 in
21:07 8.2 °F 7.1 °F 988.4 in SW 16.1 mph 30.6 mph 93 % 0.3 in
21:17 8.1 °F 7.2 °F 988.7 in SW 12.9 mph 30.6 mph 94 % 0.3 in
21:22 8.1 °F 7.2 °F 988.7 in SSW 19.3 mph 30.6 mph 94 % 0.3 in
21:27 8.1 °F 7.2 °F 988.7 in SW 17.7 mph 29.0 mph 94 % 0.5 in
21:32 8.0 °F 7.1 °F 988.7 in South 17.7 mph 29.0 mph 94 % 0.5 in
21:37 7.9 °F 7.0 °F 988.4 in South 9.7 mph 29.0 mph 94 % 0.5 in
21:42 7.8 °F 6.9 °F 988.4 in SW 11.3 mph 25.7 mph 94 % 0.8 in
22:02 7.8 °F 7.0 °F 987.7 in South 9.7 mph 20.9 mph 95 % 0.5 in
22:12 7.8 °F 7.0 °F 987.4 in SSW 6.4 mph 17.7 mph 95 % 0.8 in
22:17 7.8 °F 7.0 °F 988.0 in SW 9.7 mph 17.7 mph 95 % 0.8 in
22:22 7.8 °F 7.0 °F 988.0 in SSW 9.7 mph 17.7 mph 95 % 0.5 in
22:27 7.7 °F 6.9 °F 988.0 in SSW 8.0 mph 17.7 mph 95 % 0.5 in
22:32 7.7 °F 6.9 °F 987.7 in SSW 4.8 mph 17.7 mph 95 % 0.5 in
22:42 7.7 °F 6.9 °F 987.4 in SSE 4.8 mph 14.5 mph 95 % 0.3 in
22:57 7.8 °F 7.0 °F 987.7 in SSE 9.7 mph 17.7 mph 95 % 0.3 in
23:02 7.7 °F 6.9 °F 987.4 in South 9.7 mph 17.7 mph 95 % 0.3 in
23:22 7.8 °F 6.9 °F 987.4 in South 17.7 mph 24.1 mph 94 % 0.0 in
23:32 7.8 °F 6.7 °F 987.0 in South 14.5 mph 29.0 mph 93 % 0.0 in
23:37 7.7 °F 6.6 °F 986.7 in SSW 9.7 mph 29.0 mph 93 % 0.0 in
23:42 7.6 °F 6.5 °F 986.7 in SSE 16.1 mph 29.0 mph 93 % 0.0 in
23:52 7.5 °F 6.3 °F 985.7 in SSE 4.8 mph 19.3 mph 92 % 0.0 in
Meteo18
Compliments of Weather Underground - 4 mb

Script developed by  Jim McMurry - jmcmurry@mwt.net Adapted for the template by  Wim van der Kuil - Leuven-Template.eu

You find our weather info also at:

European Weather Network

Weather Underground

Equipment we use:

Weather-station
Davis Vue

Weather-program
Meteobridge

Weather-server
Raspberry PI 2 B+

Provider
1 and 1

Davis Vue

Meteobridge

Raspberry PI 2 B+

1 and 1